Flight Track Log - Related Links

Times and Time Zones

All times are in EDT time to prevent confusion due to time zone crossing. See the GJS3618 flight status page for this flight to view local times or setup timezone preferences in your user account.

Time Position Orientation Groundspeed Altitude Reporting Facility
EDT Latitude Longitude Course Direction KTS MPH feet Rate Location/Type
Fri 12:16:22 AM 42.0000 -87.9500 270° West 163 188 2,200  Level Chicago TRACON
Fri 12:17:22 AM 42.0000 -88.0167 270° West 212 244 3,900 1,412 Climbing Chicago TRACON
Fri 12:18:55 AM 42.0261 -88.1625 284° West 251 289 5,800 1,675 Climbing Chicago Center
Fri 12:19:56 AM 42.0428 -88.2597 283° West 266 306 8,200 2,459 Climbing Chicago Center
Fri 12:20:57 AM 42.0422 -88.3606 270° West 274 315 10,800 2,000 Climbing Chicago Center
Fri 12:21:59 AM 42.0511 -88.4664 276° West 286 329 12,300 1,512 Climbing Chicago Center
Fri 12:23:00 AM 42.0600 -88.5811 276° West 306 352 13,900 1,475 Climbing Chicago Center
Fri 12:24:01 AM 42.0692 -88.7064 276° West 332 382 15,300 1,525 Climbing Chicago Center
Fri 12:25:02 AM 42.0814 -88.8394 277° West 346 398 17,000 1,623 Climbing Chicago Center
Fri 12:26:03 AM 42.0911 -88.9706 276° West 351 404 18,600 1,820 Climbing Chicago Center
Fri 12:27:04 AM 42.1022 -89.1242 276° West 351 404 20,700 1,475 Climbing Chicago Center
Fri 12:28:05 AM 42.1119 -89.2572 276° West 354 407 21,600 934 Climbing Chicago Center
Fri 12:29:06 AM 42.1203 -89.3931 275° West 361 415 22,600 1,131 Climbing Chicago Center
Fri 12:30:07 AM 42.1294 -89.5311 275° West 366 421 23,900 1,220 Climbing Chicago Center
Fri 12:31:09 AM 42.1369 -89.6700 274° West 370 426 25,100 1,122 Climbing Chicago Center
Fri 12:32:10 AM 42.1475 -89.8042 276° West 363 418 26,200 934 Climbing Chicago Center
Fri 12:33:11 AM 42.1572 -89.9244 276° West 362 417 27,000 885 Climbing Chicago Center
Fri 12:34:12 AM 42.1667 -90.0600 275° West 365 420 28,000 1,033 Climbing Chicago Center
Fri 12:35:13 AM 42.2022 -90.2131 287° West 359 413 29,100 984 Climbing Chicago Center
Fri 12:36:14 AM 42.2372 -90.3386 291° West 361 415 30,000 836 Climbing Chicago Center
Fri 12:37:15 AM 42.2719 -90.4644 290° West 361 415 30,800 738 Climbing Chicago Center
Fri 12:38:16 AM 42.3072 -90.5911 291° West 363 418 31,500 738 Climbing Chicago Center
Fri 12:39:17 AM 42.3419 -90.7181 290° West 363 418 32,300 738 Climbing Chicago Center
Fri 12:40:18 AM 42.3767 -90.8461 290° West 364 419 33,000 689 Climbing Chicago Center
Fri 12:41:19 AM 42.4119 -90.9733 291° West 365 420 33,700 639 Climbing Chicago Center
Fri 12:42:20 AM 42.4456 -91.1022 290° West 366 421 34,300 639 Climbing Chicago Center
Fri 12:43:21 AM 42.4867 -91.2558 290° West 364 419 35,000 590 Climbing Chicago Center
Fri 12:44:22 AM 42.5211 -91.3858 290° West 367 422 35,500 492 Climbing Chicago Center
Fri 12:45:23 AM 42.5544 -91.5164 289° West 367 422 36,000 248 Climbing Chicago Center
Fri 12:46:23 AM 42.5886 -91.6500 289° West 371 427 36,000  Level Chicago Center
Fri 12:47:24 AM 42.6244 -91.7864 290° West 378 435 36,000  Level Chicago Center
Fri 12:48:25 AM 42.6600 -91.9211 290° West 378 435 36,000  Level Chicago Center
Fri 12:49:26 AM 42.6942 -92.0533 289° West 373 429 36,000  Level Chicago Center
Fri 12:50:27 AM 42.7275 -92.1872 289° West 374 430 36,000  Level Chicago Center
Fri 12:51:27 AM 42.7628 -92.3181 290° West 373 429 36,000  Level Chicago Center
Fri 12:52:28 AM 42.7958 -92.4528 289° West 376 433 36,000  Level Chicago Center
Fri 12:53:29 AM 42.8294 -92.5869 289° West 377 434 36,000  Level Chicago Center
Fri 12:54:02 AM 42.8497 -92.6667 289° West 374 430 36,000  Level Minneapolis Center
Fri 12:55:03 AM 42.8822 -92.8008 288° West 375 432 36,000  Level Minneapolis Center
Fri 12:56:03 AM 42.9164 -92.9333 289° West 373 429 36,000  Level Minneapolis Center
Fri 12:57:04 AM 42.9481 -93.0672 288° West 375 432 36,000  Level Minneapolis Center
Fri 12:58:05 AM 42.9806 -93.1997 289° West 374 430 36,000  Level Minneapolis Center
Fri 12:59:06 AM 43.0133 -93.3333 289° West 375 432 36,000  Level Minneapolis Center
Fri 01:00:07 AM 43.0531 -93.4925 289° West 374 430 36,000  Level Minneapolis Center
Fri 01:01:08 AM 43.0853 -93.6275 288° West 376 433 36,000  Level Minneapolis Center
Fri 01:02:08 AM 43.1189 -93.7658 288° West 384 442 36,000 298 Level Minneapolis Center
Fri 01:03:09 AM 43.1511 -93.9053 288° West 387 445 36,600 738 Climbing Minneapolis Center
Fri 01:04:10 AM 43.1833 -94.0425 288° West 383 441 37,500 689 Climbing Minneapolis Center
Fri 01:05:11 AM 43.2133 -94.1717 288° West 367 422 38,000 248 Climbing Minneapolis Center
Fri 01:06:11 AM 43.2444 -94.2939 289° West 357 411 38,000  Level Minneapolis Center
Fri 01:07:12 AM 43.2789 -94.4514 287° West 358 412 38,000  Level Minneapolis Center
Fri 01:08:13 AM 43.3111 -94.5811 289° West 358 412 38,000  Level Minneapolis Center
Fri 01:09:14 AM 43.3403 -94.7103 287° West 355 409 38,000  Level Minneapolis Center
Fri 01:10:14 AM 43.3694 -94.8394 287° West 354 407 38,000  Level Minneapolis Center
Fri 01:11:15 AM 43.3986 -94.9686 287° West 355 409 38,000  Level Minneapolis Center
Fri 01:12:16 AM 43.4283 -95.0983 288° West 355 409 38,000  Level Minneapolis Center
Fri 01:13:17 AM 43.4581 -95.2289 287° West 358 412 38,000  Level Minneapolis Center
Fri 01:14:17 AM 43.4872 -95.3608 287° West 360 414 38,000  Level Minneapolis Center
Fri 01:15:18 AM 43.5161 -95.4906 287° West 356 410 38,000  Level Minneapolis Center
Fri 01:16:19 AM 43.5450 -95.6228 287° West 358 412 38,000  Level Minneapolis Center
Fri 01:17:19 AM 43.5739 -95.7561 287° West 361 415 38,000  Level Minneapolis Center
Fri 01:18:20 AM 43.6031 -95.8886 287° West 361 415 38,000  Level Minneapolis Center
Fri 01:19:21 AM 43.6319 -96.0236 287° West 363 418 38,000  Level Minneapolis Center
Fri 01:20:21 AM 43.6611 -96.1600 287° West 367 422 38,000  Level Minneapolis Center
Fri 01:21:22 AM 43.6903 -96.2969 286° West 369 425 38,000  Level Minneapolis Center
Fri 01:22:23 AM 43.7194 -96.4347 286° West 372 428 38,000  Level Minneapolis Center
Fri 01:23:23 AM 43.7481 -96.5742 286° West 373 429 38,000  Level Minneapolis Center
Fri 01:24:24 AM 43.7778 -96.7144 286° West 376 433 38,000  Level Minneapolis Center
Fri 01:25:25 AM 43.8061 -96.8525 286° West 374 430 38,000  Level Minneapolis Center
Fri 01:26:25 AM 43.8344 -96.9931 286° West 376 433 38,000  Level Minneapolis Center
Fri 01:27:26 AM 43.8633 -97.1314 286° West 374 430 38,000  Level Minneapolis Center
Fri 01:28:26 AM 43.8928 -97.2714 286° West 378 435 38,000  Level Minneapolis Center
Fri 01:29:27 AM 43.9206 -97.4114 285° West 378 435 38,000  Level Minneapolis Center
Fri 01:30:28 AM 43.9483 -97.5519 285° West 378 435 38,000  Level Minneapolis Center
Fri 01:31:28 AM 43.9806 -97.7231 285° West 381 438 38,000  Level Minneapolis Center
Fri 01:32:29 AM 44.0094 -97.8650 286° West 381 438 38,000  Level Minneapolis Center
Fri 01:33:29 AM 44.0372 -98.0081 285° West 384 442 38,000  Level Minneapolis Center
Fri 01:34:30 AM 44.0658 -98.1522 285° West 388 447 38,000  Level Minneapolis Center
Fri 01:35:30 AM 44.0950 -98.2964 286° West 388 447 38,000  Level Minneapolis Center
Fri 01:36:31 AM 44.1222 -98.4411 285° West 387 445 38,000  Level Minneapolis Center
Fri 01:37:31 AM 44.1492 -98.5844 285° West 384 442 38,000  Level Minneapolis Center
Fri 01:38:32 AM 44.1750 -98.7142 286° West 383 441 38,000  Level Minneapolis Center
Fri 01:39:32 AM 44.1989 -98.8556 283° West 378 435 38,000  Level Minneapolis Center
Fri 01:40:33 AM 44.2261 -98.9975 285° West 378 435 38,000  Level Minneapolis Center
Fri 01:41:33 AM 44.2519 -99.1375 284° West 375 432 38,000  Level Minneapolis Center
Fri 01:42:34 AM 44.2783 -99.2783 285° West 375 432 38,000  Level Minneapolis Center
Fri 01:43:34 AM 44.3047 -99.4203 285° West 376 433 38,000  Level Minneapolis Center
Fri 01:44:35 AM 44.3289 -99.5628 283° West 376 433 38,000  Level Minneapolis Center
Fri 01:45:35 AM 44.3536 -99.7033 284° West 374 430 38,000  Level Minneapolis Center
Fri 01:46:36 AM 44.3794 -99.8444 284° West 373 429 38,000  Level Minneapolis Center
Fri 01:47:36 AM 44.4031 -99.9861 283° West 373 429 38,000  Level Minneapolis Center
Fri 01:48:37 AM 44.4289 -100.1286 284° West 375 432 38,000  Level Minneapolis Center
Fri 01:49:37 AM 44.4539 -100.2700 284° West 374 430 38,000  Level Minneapolis Center
Fri 01:50:37 AM 44.4775 -100.4133 283° West 375 432 38,000  Level Minneapolis Center
Fri 01:51:38 AM 44.5019 -100.5561 284° West 375 432 38,000  Level Minneapolis Center
Fri 01:52:38 AM 44.5267 -100.7017 283° West 380 437 38,000  Level Minneapolis Center
Fri 01:53:39 AM 44.5511 -100.8483 283° West 384 442 38,000  Level Minneapolis Center
Fri 01:54:39 AM 44.5761 -100.9956 283° West 386 444 38,000  Level Minneapolis Center
Fri 01:55:40 AM 44.6008 -101.1428 283° West 386 444 38,000  Level Minneapolis Center
Fri 01:56:40 AM 44.6261 -101.2908 284° West 388 447 38,000  Level Minneapolis Center
Fri 01:57:40 AM 44.6511 -101.4414 283° West 392 451 38,000  Level Minneapolis Center
Fri 01:58:41 AM 44.6756 -101.5883 283° West 389 448 38,000  Level Minneapolis Center
Fri 01:59:41 AM 44.7036 -101.7656 283° West 387 445 38,000  Level Minneapolis Center
Fri 02:00:42 AM 44.7272 -101.9153 283° West 390 449 38,000  Level Minneapolis Center
Fri 02:01:42 AM 44.7508 -102.0644 283° West 391 450 38,000  Level Minneapolis Center
Fri 02:02:32 AM 44.7683 -102.1839 282° West 393 452 38,000  Level Denver Center
Fri 02:03:33 AM 44.7903 -102.3342 282° West 392 451 38,000  Level Denver Center
Fri 02:04:34 AM 44.8144 -102.4847 283° West 393 452 38,000  Level Denver Center
Fri 02:05:34 AM 44.8361 -102.6342 282° West 391 450 38,000  Level Denver Center
Fri 02:06:35 AM 44.8594 -102.7858 282° West 394 453 38,000  Level Denver Center
Fri 02:07:36 AM 44.8822 -102.9367 282° West 394 453 38,000  Level Denver Center
Fri 02:08:36 AM 44.9033 -103.0892 281° West 396 456 38,000  Level Denver Center
Fri 02:09:32 AM 44.9247 -103.2283 282° West 395 455 38,000  Level Salt Lake Center
Fri 02:10:33 AM 44.9461 -103.3750 282° West 396 456 38,000  Level Salt Lake Center
Fri 02:12:39 AM 44.9911 -103.6961 281° West 398 458 38,000  Level Denver Center
Fri 02:13:40 AM 45.0122 -103.8514 281° West 396 456 38,000  Level Denver Center
Fri 02:14:40 AM 45.0350 -104.0139 281° West 399 459 38,000  Level Denver Center
Fri 02:15:41 AM 45.0553 -104.1628 281° West 402 463 38,000  Level Denver Center
Fri 02:16:41 AM 45.0781 -104.3350 281° West 401 461 38,000  Level Denver Center
Fri 02:17:39 AM 45.0994 -104.4847 281° West 408 470 38,000  Level Salt Lake Center
Fri 02:18:40 AM 45.1189 -104.6350 280° West 407 468 38,000  Level Salt Lake Center
Fri 02:19:40 AM 45.1375 -104.7858 280° West 407 468 38,000  Level Salt Lake Center
Fri 02:20:41 AM 45.1611 -104.9614 281° West 407 468 38,000  Level Salt Lake Center
Fri 02:21:42 AM 45.1794 -105.1103 280° West 404 465 38,000  Level Salt Lake Center
Fri 02:22:43 AM 45.1989 -105.2594 281° West 403 464 38,000  Level Salt Lake Center
Fri 02:23:44 AM 45.2197 -105.4344 280° West 404 465 38,000  Level Salt Lake Center
Fri 02:24:44 AM 45.2392 -105.5831 281° West 403 464 38,000  Level Salt Lake Center
Fri 02:25:45 AM 45.2575 -105.7347 280° West 406 467 38,000  Level Salt Lake Center
Fri 02:26:46 AM 45.2781 -105.9111 279° West 406 467 38,000  Level Salt Lake Center
Fri 02:27:46 AM 45.2961 -106.0628 280° West 406 467 38,000  Level Salt Lake Center
Fri 02:28:47 AM 45.3144 -106.2228 279° West 410 472 38,000  Level Salt Lake Center
Fri 02:29:48 AM 45.3333 -106.3831 280° West 412 474 38,000  Level Salt Lake Center
Fri 02:30:49 AM 45.3522 -106.5433 280° West 411 473 38,000  Level Salt Lake Center
Fri 02:31:49 AM 45.3697 -106.7031 279° West 410 472 38,000  Level Salt Lake Center
Fri 02:32:50 AM 45.3872 -106.8631 279° West 411 473 38,000  Level Salt Lake Center
Fri 02:34:00 AM 45.4050 -107.0332 279° West  Level FlightAware Approximate
Fri 02:34:51 AM 45.4214 -107.1867 279° West 414 476 38,000  Level Salt Lake Center
Fri 02:35:52 AM 45.4417 -107.3761 279° West 414 476 38,000  Level Salt Lake Center
Fri 02:36:53 AM 45.4589 -107.5361 279° West 415 478 38,000  Level Salt Lake Center
Fri 02:37:53 AM 45.4761 -107.6981 279° West 417 480 38,000  Level Salt Lake Center
Fri 02:38:54 AM 45.4919 -107.8597 278° West 418 481 38,000  Level Salt Lake Center
Fri 02:39:55 AM 45.5094 -108.0347 278° West 414 476 38,000  Level Salt Lake Center
Fri 02:40:55 AM 45.5256 -108.1964 278° West 416 479 38,000  Level Salt Lake Center
Fri 02:41:56 AM 45.5411 -108.3594 278° West 422 486 38,000  Level Salt Lake Center
Fri 02:42:57 AM 45.5561 -108.5233 278° West 419 482 38,000  Level Salt Lake Center
Fri 02:43:57 AM 45.5722 -108.6889 278° West 423 487 38,000  Level Salt Lake Center
Fri 02:44:58 AM 45.5894 -108.8681 278° West 423 487 38,000  Level Salt Lake Center
Fri 02:45:59 AM 45.6047 -109.0314 278° West 420 483 38,000 -645 Level Salt Lake Center
Fri 02:46:59 AM 45.6200 -109.1950 278° West 420 483 36,700 -2,033 Descending Salt Lake Center
Fri 02:48:00 AM 45.6344 -109.3558 277° West 413 475 33,900 -2,852 Descending Salt Lake Center
Fri 02:49:01 AM 45.6492 -109.5281 277° West 406 467 30,900 -2,852 Descending Salt Lake Center
Fri 02:50:02 AM 45.6628 -109.6814 277° West 395 455 28,100 -2,628 Descending Salt Lake Center
Fri 02:51:02 AM 45.6744 -109.8228 277° West 385 443 25,600 -2,430 Descending Salt Lake Center
Fri 02:52:03 AM 45.6861 -109.9633 277° West 378 435 23,200 -2,311 Descending Salt Lake Center
Fri 02:53:04 AM 45.6992 -110.1189 277° West 363 418 20,900 -2,083 Descending Salt Lake Center
Fri 02:54:04 AM 45.7081 -110.2506 276° West 355 409 19,000 -1,785 Descending Salt Lake Center
Fri 02:55:05 AM 45.7186 -110.3811 277° West 351 404 17,300 -1,918 Descending Salt Lake Center
Fri 02:56:06 AM 45.7311 -110.5322 277° West 348 400 15,100 -2,016 Descending Salt Lake Center
Fri 02:57:07 AM 45.7414 -110.6553 277° West 340 391 13,200 -1,240 Descending Salt Lake Center
Fri 02:58:07 AM 45.7528 -110.7942 277° West 336 387 12,600 -595 Descending Salt Lake Center
Fri 02:59:08 AM 45.7586 -110.8894 275° West 304 350 12,000 -642 Descending Salt Lake Center
Fri 03:01:00 AM 45.7667 -111.1500 270° West  Level FlightAware Approximate
Fri 03:02:10 AM 45.7817 -111.2203 270° West 272 313 10,000  Level Salt Lake Center
Fri 03:03:11 AM 45.7897 -111.3264 276° West 272 313 10,000 50 Level Salt Lake Center
Fri 03:04:11 AM 45.8225 -111.4181 297° West 266 306 10,100 50 Climbing Salt Lake Center
Fri 03:05:12 AM 45.8664 -111.5058 306° West 267 307 10,100 -492 Level Salt Lake Center
Fri 03:06:13 AM 45.9192 -111.5736 318° Northwest 267 307 9,100 -496 Descending Salt Lake Center
Fri 03:07:13 AM 45.9625 -111.4964 51° Northeast 268 308 9,100 -446 Level Salt Lake Center
Fri 03:08:14 AM 45.9506 -111.3986 100° East 262 302 8,200 -1,033 Descending Salt Lake Center
Fri 03:09:15 AM 45.9061 -111.3308 133° Southeast 245 282 7,000 -744 Descending Salt Lake Center
Fri 03:10:15 AM 45.8667 -111.2769 136° Southeast 214 246 6,700 -496 Descending Salt Lake Center
Fri 03:11:16 AM 45.8361 -111.2331 135° Southeast 174 200 6,000 -738 Descending Salt Lake Center
Fri 03:12:17 AM 45.8075 -111.1942 137° Southeast 155 178 5,200 -744 Descending Salt Lake Center
Fri 03:13:17 AM 45.7806 -111.1575 136° Southeast 146 168 4,500 -700 Descending Salt Lake Center

Login

Don't have an account? Register now (free) for customized features, flight alerts, and more!